sensor_id;sensor_type;location;lat;lon;timestamp;pressure;altitude;pressure_sealevel;temperature;humidity
67397;BME280;57728;50.448;18.824;2022-09-30T00:01:27;97117.94;;;8.26;76.02
67397;BME280;57728;50.448;18.824;2022-09-30T00:03:29;97119.03;;;8.25;76.09
67397;BME280;57728;50.448;18.824;2022-09-30T00:05:31;97112.34;;;8.23;75.82
67397;BME280;57728;50.448;18.824;2022-09-30T00:07:33;97107.63;;;8.14;76.15
67397;BME280;57728;50.448;18.824;2022-09-30T00:09:34;97111.84;;;8.21;76.26
67397;BME280;57728;50.448;18.824;2022-09-30T00:11:36;97102.22;;;8.20;76.12
67397;BME280;57728;50.448;18.824;2022-09-30T00:13:39;97098.75;;;8.19;75.92
67397;BME280;57728;50.448;18.824;2022-09-30T00:15:45;97101.44;;;8.19;75.59
67397;BME280;57728;50.448;18.824;2022-09-30T00:17:46;97094.44;;;8.18;75.78
67397;BME280;57728;50.448;18.824;2022-09-30T00:19:49;97099.00;;;8.18;75.82
67397;BME280;57728;50.448;18.824;2022-09-30T00:21:51;97092.63;;;8.13;75.81
67397;BME280;57728;50.448;18.824;2022-09-30T00:23:53;97106.25;;;8.17;75.76
67397;BME280;57728;50.448;18.824;2022-09-30T00:25:58;97108.66;;;8.19;75.60
67397;BME280;57728;50.448;18.824;2022-09-30T00:28:01;97109.97;;;8.21;75.93
67397;BME280;57728;50.448;18.824;2022-09-30T00:30:03;97114.25;;;8.22;75.76
67397;BME280;57728;50.448;18.824;2022-09-30T00:32:05;97117.44;;;8.24;75.84
67397;BME280;57728;50.448;18.824;2022-09-30T00:34:06;97108.94;;;8.17;75.62
67397;BME280;57728;50.448;18.824;2022-09-30T00:36:09;97125.72;;;8.28;75.43
67397;BME280;57728;50.448;18.824;2022-09-30T00:38:11;97128.13;;;8.29;75.22
67397;BME280;57728;50.448;18.824;2022-09-30T00:40:13;97123.53;;;8.30;75.04
67397;BME280;57728;50.448;18.824;2022-09-30T00:42:14;97129.44;;;8.32;74.97
67397;BME280;57728;50.448;18.824;2022-09-30T00:46:51;97129.94;;;8.34;75.06
67397;BME280;57728;50.448;18.824;2022-09-30T00:48:53;97136.09;;;8.34;74.85
67397;BME280;57728;50.448;18.824;2022-09-30T00:51:02;97144.09;;;8.39;74.76
67397;BME280;57728;50.448;18.824;2022-09-30T00:53:25;97131.97;;;8.42;75.03
67397;BME280;57728;50.448;18.824;2022-09-30T00:58:09;97124.38;;;8.49;74.81
67397;BME280;57728;50.448;18.824;2022-09-30T01:00:15;97126.19;;;8.54;74.53
67397;BME280;57728;50.448;18.824;2022-09-30T01:02:17;97122.13;;;8.56;74.43
67397;BME280;57728;50.448;18.824;2022-09-30T01:04:22;97127.72;;;8.60;74.31
67397;BME280;57728;50.448;18.824;2022-09-30T01:06:25;97125.28;;;8.63;73.94
67397;BME280;57728;50.448;18.824;2022-09-30T01:08:27;97142.16;;;8.64;73.92
67397;BME280;57728;50.448;18.824;2022-09-30T01:10:32;97137.59;;;8.64;73.88
67397;BME280;57728;50.448;18.824;2022-09-30T01:12:34;97138.09;;;8.67;73.77
67397;BME280;57728;50.448;18.824;2022-09-30T01:14:36;97143.19;;;8.68;74.05
67397;BME280;57728;50.448;18.824;2022-09-30T01:16:56;97144.47;;;8.71;74.02
67397;BME280;57728;50.448;18.824;2022-09-30T01:35:14;97139.31;;;8.79;73.34
67397;BME280;57728;50.448;18.824;2022-09-30T01:37:24;97129.41;;;8.75;74.02
67397;BME280;57728;50.448;18.824;2022-09-30T01:49:34;97131.66;;;8.68;74.35
67397;BME280;57728;50.448;18.824;2022-09-30T02:00:59;97150.69;;;8.71;74.48
67397;BME280;57728;50.448;18.824;2022-09-30T02:03:16;97155.44;;;8.74;74.65
67397;BME280;57728;50.448;18.824;2022-09-30T02:05:31;97150.31;;;8.78;74.85
67397;BME280;57728;50.448;18.824;2022-09-30T02:07:48;97157.81;;;8.81;74.68
67397;BME280;57728;50.448;18.824;2022-09-30T02:10:21;97159.63;;;8.85;74.65
67397;BME280;57728;50.448;18.824;2022-09-30T02:12:32;97146.19;;;8.85;74.75
67397;BME280;57728;50.448;18.824;2022-09-30T02:14:48;97147.78;;;8.86;74.89
67397;BME280;57728;50.448;18.824;2022-09-30T02:17:18;97146.50;;;8.84;74.81
67397;BME280;57728;50.448;18.824;2022-09-30T02:19:34;97151.06;;;8.83;74.83
67397;BME280;57728;50.448;18.824;2022-09-30T02:21:47;97144.69;;;8.79;74.48
67397;BME280;57728;50.448;18.824;2022-09-30T02:24:03;97148.09;;;8.85;74.55
67397;BME280;57728;50.448;18.824;2022-09-30T02:26:17;97141.63;;;8.86;74.54
67397;BME280;57728;50.448;18.824;2022-09-30T02:28:26;97139.50;;;8.83;74.50
67397;BME280;57728;50.448;18.824;2022-09-30T02:30:32;97136.03;;;8.82;74.04
67397;BME280;57728;50.448;18.824;2022-09-30T02:32:51;97137.41;;;8.80;74.19
67397;BME280;57728;50.448;18.824;2022-09-30T02:35:06;97137.75;;;8.73;74.39
67397;BME280;57728;50.448;18.824;2022-09-30T02:37:19;97147.94;;;8.76;74.41
67397;BME280;57728;50.448;18.824;2022-09-30T02:42:05;97155.44;;;8.79;74.21
67397;BME280;57728;50.448;18.824;2022-09-30T02:44:13;97154.41;;;8.75;74.04
67397;BME280;57728;50.448;18.824;2022-09-30T02:46:40;97156.28;;;8.75;74.57
67397;BME280;57728;50.448;18.824;2022-09-30T02:51:18;97164.06;;;8.76;74.66
67397;BME280;57728;50.448;18.824;2022-09-30T02:53:42;97169.91;;;8.78;74.88
67397;BME280;57728;50.448;18.824;2022-09-30T02:58:23;97153.22;;;8.81;74.85
67397;BME280;57728;50.448;18.824;2022-09-30T03:00:29;97154.03;;;8.82;74.62
67397;BME280;57728;50.448;18.824;2022-09-30T03:02:31;97154.81;;;8.82;74.76
67397;BME280;57728;50.448;18.824;2022-09-30T03:04:37;97159.94;;;8.84;74.72
67397;BME280;57728;50.448;18.824;2022-09-30T03:06:41;97154.25;;;8.85;74.42
67397;BME280;57728;50.448;18.824;2022-09-30T03:08:46;97151.88;;;8.84;74.54
67397;BME280;57728;50.448;18.824;2022-09-30T03:10:50;97156.63;;;8.87;74.62
67397;BME280;57728;50.448;18.824;2022-09-30T03:15:24;97162.53;;;8.89;74.27
67397;BME280;57728;50.448;18.824;2022-09-30T03:20:20;97172.97;;;8.91;74.99
67397;BME280;57728;50.448;18.824;2022-09-30T03:27:51;97181.47;;;8.98;74.55
67397;BME280;57728;50.448;18.824;2022-09-30T03:30:06;97179.59;;;8.98;74.49
67397;BME280;57728;50.448;18.824;2022-09-30T03:40:17;97184.38;;;9.01;74.96
67397;BME280;57728;50.448;18.824;2022-09-30T03:42:44;97175.00;;;8.99;74.70
67397;BME280;57728;50.448;18.824;2022-09-30T03:47:36;97184.75;;;8.95;74.89
67397;BME280;57728;50.448;18.824;2022-09-30T03:49:56;97181.25;;;8.94;75.24
67397;BME280;57728;50.448;18.824;2022-09-30T03:52:05;97183.16;;;8.94;75.28
67397;BME280;57728;50.448;18.824;2022-09-30T03:54:12;97183.16;;;8.94;75.45
67397;BME280;57728;50.448;18.824;2022-09-30T03:56:14;97183.38;;;8.97;75.60
67397;BME280;57728;50.448;18.824;2022-09-30T03:58:24;97182.28;;;8.98;75.37
67397;BME280;57728;50.448;18.824;2022-09-30T04:00:26;97181.47;;;8.98;75.36
67397;BME280;57728;50.448;18.824;2022-09-30T04:02:27;97170.28;;;8.91;75.79
67397;BME280;57728;50.448;18.824;2022-09-30T04:04:29;97181.78;;;8.96;75.98
67397;BME280;57728;50.448;18.824;2022-09-30T04:06:31;97176.63;;;9.00;75.92
67397;BME280;57728;50.448;18.824;2022-09-30T04:08:32;97172.06;;;9.00;75.60
67397;BME280;57728;50.448;18.824;2022-09-30T04:10:33;97176.63;;;9.00;75.99
67397;BME280;57728;50.448;18.824;2022-09-30T04:12:35;97173.63;;;9.01;76.10
67397;BME280;57728;50.448;18.824;2022-09-30T04:14:37;97174.44;;;9.02;76.01
67397;BME280;57728;50.448;18.824;2022-09-30T04:16:38;97182.50;;;9.02;75.79
67397;BME280;57728;50.448;18.824;2022-09-30T04:18:40;97176.03;;;9.03;75.73
67397;BME280;57728;50.448;18.824;2022-09-30T04:20:42;97174.97;;;9.04;75.84
67397;BME280;57728;50.448;18.824;2022-09-30T04:22:44;97175.22;;;9.02;75.84
67397;BME280;57728;50.448;18.824;2022-09-30T04:24:46;97172.84;;;9.01;76.03
67397;BME280;57728;50.448;18.824;2022-09-30T04:26:47;97173.41;;;8.98;76.32
67397;BME280;57728;50.448;18.824;2022-09-30T04:28:49;97166.47;;;8.97;76.05
67397;BME280;57728;50.448;18.824;2022-09-30T04:30:53;97174.00;;;8.95;76.14
67397;BME280;57728;50.448;18.824;2022-09-30T04:32:54;97178.31;;;8.96;76.16
67397;BME280;57728;50.448;18.824;2022-09-30T04:34:55;97176.69;;;8.95;76.45
67397;BME280;57728;50.448;18.824;2022-09-30T04:37:00;97178.31;;;8.96;76.44
67397;BME280;57728;50.448;18.824;2022-09-30T04:39:03;97180.19;;;8.95;76.29
67397;BME280;57728;50.448;18.824;2022-09-30T04:41:06;97183.16;;;8.94;76.67
67397;BME280;57728;50.448;18.824;2022-09-30T04:43:10;97184.47;;;8.96;76.56
67397;BME280;57728;50.448;18.824;2022-09-30T04:45:12;97179.97;;;8.92;76.45
67397;BME280;57728;50.448;18.824;2022-09-30T04:47:14;97192.22;;;8.98;76.79
67397;BME280;57728;50.448;18.824;2022-09-30T04:49:16;97192.75;;;9.00;76.46
67397;BME280;57728;50.448;18.824;2022-09-30T04:51:19;97197.03;;;9.01;76.42
67397;BME280;57728;50.448;18.824;2022-09-30T04:53:21;97192.44;;;9.01;76.43
67397;BME280;57728;50.448;18.824;2022-09-30T04:55:23;97194.03;;;9.02;76.64
67397;BME280;57728;50.448;18.824;2022-09-30T04:57:24;97187.88;;;9.02;76.65
67397;BME280;57728;50.448;18.824;2022-09-30T04:59:27;97200.44;;;9.06;76.52
67397;BME280;57728;50.448;18.824;2022-09-30T05:01:30;97209.81;;;9.09;76.20
67397;BME280;57728;50.448;18.824;2022-09-30T05:03:32;97207.13;;;9.09;76.36
67397;BME280;57728;50.448;18.824;2022-09-30T05:05:34;97208.72;;;9.10;76.26
67397;BME280;57728;50.448;18.824;2022-09-30T05:07:36;97190.34;;;8.98;76.31
67397;BME280;57728;50.448;18.824;2022-09-30T05:09:37;97208.06;;;9.18;76.48
67397;BME280;57728;50.448;18.824;2022-09-30T05:11:38;97209.38;;;9.21;75.94
67397;BME280;57728;50.448;18.824;2022-09-30T05:13:43;97206.16;;;9.19;75.98
67397;BME280;57728;50.448;18.824;2022-09-30T05:15:47;97216.03;;;9.23;75.95
67397;BME280;57728;50.448;18.824;2022-09-30T05:17:50;97216.56;;;9.25;75.80
67397;BME280;57728;50.448;18.824;2022-09-30T05:19:53;97227.00;;;9.27;75.76
67397;BME280;57728;50.448;18.824;2022-09-30T05:21:55;97222.16;;;9.29;75.75
67397;BME280;57728;50.448;18.824;2022-09-30T05:23:56;97215.97;;;9.28;75.52
67397;BME280;57728;50.448;18.824;2022-09-30T05:26:00;97216.78;;;9.29;75.68
67397;BME280;57728;50.448;18.824;2022-09-30T05:28:01;97228.53;;;9.33;75.83
67397;BME280;57728;50.448;18.824;2022-09-30T05:30:03;97221.34;;;9.28;75.63
67397;BME280;57728;50.448;18.824;2022-09-30T05:32:07;97224.25;;;9.32;75.79
67397;BME280;57728;50.448;18.824;2022-09-30T05:34:08;97228.25;;;9.34;76.16
67397;BME280;57728;50.448;18.824;2022-09-30T05:36:13;97219.38;;;9.34;76.06
67397;BME280;57728;50.448;18.824;2022-09-30T05:38:16;97218.28;;;9.35;76.01
67397;BME280;57728;50.448;18.824;2022-09-30T05:40:18;97225.50;;;9.40;76.09
67397;BME280;57728;50.448;18.824;2022-09-30T05:42:19;97225.69;;;9.43;76.40
67397;BME280;57728;50.448;18.824;2022-09-30T05:44:21;97217.34;;;9.45;75.86
67397;BME280;57728;50.448;18.824;2022-09-30T05:46:22;97211.38;;;9.48;76.31
67397;BME280;57728;50.448;18.824;2022-09-30T05:48:24;97219.84;;;9.55;75.90
67397;BME280;57728;50.448;18.824;2022-09-30T05:50:26;97224.66;;;9.58;75.76
67397;BME280;57728;50.448;18.824;2022-09-30T05:52:27;97221.38;;;9.61;76.13
67397;BME280;57728;50.448;18.824;2022-09-30T05:54:29;97222.19;;;9.61;75.71
67397;BME280;57728;50.448;18.824;2022-09-30T05:56:31;97213.59;;;9.59;75.50
67397;BME280;57728;50.448;18.824;2022-09-30T05:58:35;97222.88;;;9.67;75.59
67397;BME280;57728;50.448;18.824;2022-09-30T06:00:45;97218.59;;;9.66;75.65
67397;BME280;57728;50.448;18.824;2022-09-30T06:02:52;97216.94;;;9.70;74.95
67397;BME280;57728;50.448;18.824;2022-09-30T06:04:53;97229.22;;;9.76;75.18
67397;BME280;57728;50.448;18.824;2022-09-30T06:06:54;97227.31;;;9.77;74.63
67397;BME280;57728;50.448;18.824;2022-09-30T06:08:56;97236.69;;;9.79;74.90
67397;BME280;57728;50.448;18.824;2022-09-30T06:10:57;97232.91;;;9.80;74.88
67397;BME280;57728;50.448;18.824;2022-09-30T06:13:02;97238.28;;;9.80;74.87
67397;BME280;57728;50.448;18.824;2022-09-30T06:15:05;97243.88;;;9.84;74.36
67397;BME280;57728;50.448;18.824;2022-09-30T06:17:06;97252.97;;;9.88;74.79
67397;BME280;57728;50.448;18.824;2022-09-30T06:19:08;97249.97;;;9.90;74.30
67397;BME280;57728;50.448;18.824;2022-09-30T06:21:13;97259.34;;;9.92;74.74
67397;BME280;57728;50.448;18.824;2022-09-30T06:23:15;97255.84;;;9.92;74.58
67397;BME280;57728;50.448;18.824;2022-09-30T06:25:17;97261.16;;;9.97;74.08
67397;BME280;57728;50.448;18.824;2022-09-30T06:27:19;97258.97;;;9.99;73.95
67397;BME280;57728;50.448;18.824;2022-09-30T06:29:21;97263.44;;;10.03;74.37
67397;BME280;57728;50.448;18.824;2022-09-30T06:31:22;97267.44;;;10.06;74.32
67397;BME280;57728;50.448;18.824;2022-09-30T06:33:24;97270.34;;;10.09;74.59
67397;BME280;57728;50.448;18.824;2022-09-30T06:35:26;97275.16;;;10.13;73.84
67397;BME280;57728;50.448;18.824;2022-09-30T06:37:29;97269.97;;;10.16;74.13
67397;BME280;57728;50.448;18.824;2022-09-30T06:39:31;97277.97;;;10.21;74.38
67397;BME280;57728;50.448;18.824;2022-09-30T06:41:32;97281.94;;;10.24;74.22
67397;BME280;57728;50.448;18.824;2022-09-30T06:43:33;97279.56;;;10.22;74.50
67397;BME280;57728;50.448;18.824;2022-09-30T06:45:37;97269.38;;;10.19;74.61
67397;BME280;57728;50.448;18.824;2022-09-30T06:47:38;97277.06;;;10.26;74.65
67397;BME280;57728;50.448;18.824;2022-09-30T06:49:40;97275.69;;;10.28;74.77
67397;BME280;57728;50.448;18.824;2022-09-30T06:51:42;97274.59;;;10.29;74.86
67397;BME280;57728;50.448;18.824;2022-09-30T06:53:44;97277.75;;;10.31;74.85
67397;BME280;57728;50.448;18.824;2022-09-30T06:55:45;97281.81;;;10.34;74.99
67397;BME280;57728;50.448;18.824;2022-09-30T06:57:47;97280.69;;;10.35;75.00
67397;BME280;57728;50.448;18.824;2022-09-30T06:59:48;97284.19;;;10.35;74.73
67397;BME280;57728;50.448;18.824;2022-09-30T07:01:50;97281.50;;;10.35;74.69
67397;BME280;57728;50.448;18.824;2022-09-30T07:03:53;97288.97;;;10.39;74.99
67397;BME280;57728;50.448;18.824;2022-09-30T07:05:59;97287.38;;;10.38;74.94
67397;BME280;57728;50.448;18.824;2022-09-30T07:08:02;97292.47;;;10.39;74.94
67397;BME280;57728;50.448;18.824;2022-09-30T07:10:05;97291.41;;;10.40;75.22
67397;BME280;57728;50.448;18.824;2022-09-30T07:12:06;97289.97;;;10.43;74.89
67397;BME280;57728;50.448;18.824;2022-09-30T07:14:08;97284.00;;;10.46;74.64
67397;BME280;57728;50.448;18.824;2022-09-30T07:16:12;97286.41;;;10.47;75.39
67397;BME280;57728;50.448;18.824;2022-09-30T07:18:13;97285.50;;;10.52;74.87
67397;BME280;57728;50.448;18.824;2022-09-30T07:20:15;97290.88;;;10.52;75.08
67397;BME280;57728;50.448;18.824;2022-09-30T07:22:18;97291.09;;;10.55;74.99
67397;BME280;57728;50.448;18.824;2022-09-30T07:24:29;97292.41;;;10.58;75.22
67397;BME280;57728;50.448;18.824;2022-09-30T07:26:31;97291.31;;;10.59;75.39
67397;BME280;57728;50.448;18.824;2022-09-30T07:28:35;97293.09;;;10.64;75.29
67397;BME280;57728;50.448;18.824;2022-09-30T07:30:41;97296.50;;;10.69;75.35
67397;BME280;57728;50.448;18.824;2022-09-30T07:32:43;97296.72;;;10.73;75.04
67397;BME280;57728;50.448;18.824;2022-09-30T07:34:45;97296.59;;;10.78;75.21
67397;BME280;57728;50.448;18.824;2022-09-30T07:36:46;97297.00;;;10.85;74.78
67397;BME280;57728;50.448;18.824;2022-09-30T07:38:49;97290.19;;;10.88;74.91
67397;BME280;57728;50.448;18.824;2022-09-30T07:41:06;97292.50;;;10.94;74.69
67397;BME280;57728;50.448;18.824;2022-09-30T07:43:13;97294.00;;;11.00;74.39
67397;BME280;57728;50.448;18.824;2022-09-30T07:45:18;97303.25;;;11.08;74.22
67397;BME280;57728;50.448;18.824;2022-09-30T07:47:23;97299.38;;;11.14;74.41
67397;BME280;57728;50.448;18.824;2022-09-30T07:49:26;97303.88;;;11.19;74.08
67397;BME280;57728;50.448;18.824;2022-09-30T07:51:31;97310.84;;;11.20;74.07
67397;BME280;57728;50.448;18.824;2022-09-30T07:53:36;97315.34;;;11.24;73.96
67397;BME280;57728;50.448;18.824;2022-09-30T07:55:37;97308.25;;;11.28;73.66
67397;BME280;57728;50.448;18.824;2022-09-30T07:57:38;97317.63;;;11.31;73.88
67397;BME280;57728;50.448;18.824;2022-09-30T07:59:41;97319.41;;;11.35;73.90
67397;BME280;57728;50.448;18.824;2022-09-30T08:01:42;97316.72;;;11.35;73.52
67397;BME280;57728;50.448;18.824;2022-09-30T08:03:43;97322.81;;;11.41;73.65
67397;BME280;57728;50.448;18.824;2022-09-30T08:05:45;97324.28;;;11.47;73.57
67397;BME280;57728;50.448;18.824;2022-09-30T08:07:48;97317.50;;;11.50;73.63
67397;BME280;57728;50.448;18.824;2022-09-30T08:09:49;97321.47;;;11.52;73.74
67397;BME280;57728;50.448;18.824;2022-09-30T08:11:51;97329.28;;;11.54;73.62
67397;BME280;57728;50.448;18.824;2022-09-30T08:13:55;97321.66;;;11.56;73.24
67397;BME280;57728;50.448;18.824;2022-09-30T08:15:57;97317.56;;;11.58;73.52
67397;BME280;57728;50.448;18.824;2022-09-30T08:17:59;97324.75;;;11.63;73.89
67397;BME280;57728;50.448;18.824;2022-09-30T08:20:00;97325.72;;;11.67;73.66
67397;BME280;57728;50.448;18.824;2022-09-30T08:22:01;97330.84;;;11.69;73.26
67397;BME280;57728;50.448;18.824;2022-09-30T08:24:03;97327.03;;;11.70;73.11
67397;BME280;57728;50.448;18.824;2022-09-30T08:26:10;97333.53;;;11.69;73.04
67397;BME280;57728;50.448;18.824;2022-09-30T08:28:12;97334.63;;;11.68;73.07
67397;BME280;57728;50.448;18.824;2022-09-30T08:30:16;97337.31;;;11.68;73.77
67397;BME280;57728;50.448;18.824;2022-09-30T08:32:17;97335.72;;;11.67;73.21
67397;BME280;57728;50.448;18.824;2022-09-30T08:34:18;97340.34;;;11.66;73.04
67397;BME280;57728;50.448;18.824;2022-09-30T08:36:23;97343.63;;;11.63;73.49
67397;BME280;57728;50.448;18.824;2022-09-30T08:38:26;97339.81;;;11.64;73.23
67397;BME280;57728;50.448;18.824;2022-09-30T08:40:30;97344.94;;;11.66;73.65
67397;BME280;57728;50.448;18.824;2022-09-30T08:45:18;97339.09;;;11.72;73.91
67397;BME280;57728;50.448;18.824;2022-09-30T08:50:27;97338.41;;;11.80;72.82
67397;BME280;57728;50.448;18.824;2022-09-30T08:52:44;97339.09;;;11.86;73.27
67397;BME280;57728;50.448;18.824;2022-09-30T08:54:55;97341.38;;;11.93;73.08
67397;BME280;57728;50.448;18.824;2022-09-30T08:57:01;97339.28;;;11.90;73.25
67397;BME280;57728;50.448;18.824;2022-09-30T09:01:35;97347.28;;;11.95;72.95
67397;BME280;57728;50.448;18.824;2022-09-30T09:03:43;97348.06;;;11.95;73.17
67397;BME280;57728;50.448;18.824;2022-09-30T09:16:41;97357.34;;;12.03;72.04
67397;BME280;57728;50.448;18.824;2022-09-30T09:21:56;97353.47;;;11.95;72.63
67397;BME280;57728;50.448;18.824;2022-09-30T09:23:56;97359.28;;;11.89;72.68
67397;BME280;57728;50.448;18.824;2022-09-30T09:26:03;97363.09;;;11.88;72.74
67397;BME280;57728;50.448;18.824;2022-09-30T09:30:57;97367.88;;;11.91;73.60
67397;BME280;57728;50.448;18.824;2022-09-30T09:33:18;97369.66;;;11.95;73.25
67397;BME280;57728;50.448;18.824;2022-09-30T09:35:59;97374.66;;;11.88;73.56
67397;BME280;57728;50.448;18.824;2022-09-30T09:46:28;97371.09;;;11.93;74.39
67397;BME280;57728;50.448;18.824;2022-09-30T09:51:25;97370.25;;;11.92;74.06
67397;BME280;57728;50.448;18.824;2022-09-30T09:53:46;97365.59;;;11.84;74.68
67397;BME280;57728;50.448;18.824;2022-09-30T09:55:54;97370.19;;;11.83;74.32
67397;BME280;57728;50.448;18.824;2022-09-30T09:58:10;97375.31;;;11.85;74.92
67397;BME280;57728;50.448;18.824;2022-09-30T10:02:40;97379.06;;;11.98;73.97
67397;BME280;57728;50.448;18.824;2022-09-30T10:04:47;97370.84;;;12.03;74.16
67397;BME280;57728;50.448;18.824;2022-09-30T10:06:52;97373.41;;;12.08;74.09
67397;BME280;57728;50.448;18.824;2022-09-30T10:08:56;97383.91;;;12.10;73.71
67397;BME280;57728;50.448;18.824;2022-09-30T10:10:59;97375.69;;;12.15;73.73
67397;BME280;57728;50.448;18.824;2022-09-30T10:13:03;97376.16;;;12.17;73.03
67397;BME280;57728;50.448;18.824;2022-09-30T10:17:21;97376.34;;;12.20;73.46
67397;BME280;57728;50.448;18.824;2022-09-30T10:19:31;97378.78;;;12.22;73.47
67397;BME280;57728;50.448;18.824;2022-09-30T10:21:35;97379.94;;;12.29;73.81
67397;BME280;57728;50.448;18.824;2022-09-30T10:23:38;97378.03;;;12.30;73.85
67397;BME280;57728;50.448;18.824;2022-09-30T10:27:59;97383.31;;;12.35;73.60
67397;BME280;57728;50.448;18.824;2022-09-30T10:30:03;97390.28;;;12.36;73.65
67397;BME280;57728;50.448;18.824;2022-09-30T10:32:07;97385.69;;;12.37;73.01
67397;BME280;57728;50.448;18.824;2022-09-30T10:36:34;97391.53;;;12.30;73.01
67397;BME280;57728;50.448;18.824;2022-09-30T10:39:05;97396.16;;;12.29;73.22
67397;BME280;57728;50.448;18.824;2022-09-30T10:41:09;97395.63;;;12.27;73.26
67397;BME280;57728;50.448;18.824;2022-09-30T10:43:22;97400.97;;;12.19;73.42
67397;BME280;57728;50.448;18.824;2022-09-30T10:45:35;97401.59;;;12.16;73.39
67397;BME280;57728;50.448;18.824;2022-09-30T10:47:45;97407.19;;;12.19;73.70
67397;BME280;57728;50.448;18.824;2022-09-30T10:52:30;97407.00;;;12.16;73.22
67397;BME280;57728;50.448;18.824;2022-09-30T10:56:44;97410.00;;;12.14;73.58
67397;BME280;57728;50.448;18.824;2022-09-30T10:58:52;97417.78;;;12.16;72.78
67397;BME280;57728;50.448;18.824;2022-09-30T11:01:11;97406.50;;;12.14;72.67
67397;BME280;57728;50.448;18.824;2022-09-30T11:03:24;97412.56;;;12.19;72.92
67397;BME280;57728;50.448;18.824;2022-09-30T11:05:37;97411.59;;;12.15;73.11
67397;BME280;57728;50.448;18.824;2022-09-30T11:07:49;97413.38;;;12.20;73.17
67397;BME280;57728;50.448;18.824;2022-09-30T11:12:45;97413.88;;;12.22;73.02
67397;BME280;57728;50.448;18.824;2022-09-30T11:20:22;97420.47;;;12.29;72.12
67397;BME280;57728;50.448;18.824;2022-09-30T11:25:24;97413.88;;;12.22;72.68
67397;BME280;57728;50.448;18.824;2022-09-30T11:30:20;97426.88;;;12.20;72.40
67397;BME280;57728;50.448;18.824;2022-09-30T11:43:25;97433.13;;;12.06;72.70
67397;BME280;57728;50.448;18.824;2022-09-30T11:47:45;97437.00;;;12.14;72.96
67397;BME280;57728;50.448;18.824;2022-09-30T12:00:00;97443.78;;;12.25;73.12
67397;BME280;57728;50.448;18.824;2022-09-30T12:02:34;97450.34;;;12.33;73.04
67397;BME280;57728;50.448;18.824;2022-09-30T12:04:42;97445.13;;;12.37;72.66
67397;BME280;57728;50.448;18.824;2022-09-30T12:06:59;97436.59;;;12.43;72.86
67397;BME280;57728;50.448;18.824;2022-09-30T12:14:41;97450.47;;;12.50;71.85
67397;BME280;57728;50.448;18.824;2022-09-30T12:16:47;97448.19;;;12.44;72.07
67397;BME280;57728;50.448;18.824;2022-09-30T12:21:28;97447.56;;;12.24;72.42
67397;BME280;57728;50.448;18.824;2022-09-30T12:23:47;97448.00;;;12.18;72.66
67397;BME280;57728;50.448;18.824;2022-09-30T12:25:59;97448.09;;;12.13;72.62
67397;BME280;57728;50.448;18.824;2022-09-30T12:28:13;97455.41;;;12.12;73.25
67397;BME280;57728;50.448;18.824;2022-09-30T12:31:04;97455.22;;;12.08;73.28
67397;BME280;57728;50.448;18.824;2022-09-30T12:39:55;97453.59;;;11.85;73.62
67397;BME280;57728;50.448;18.824;2022-09-30T12:47:34;97474.47;;;11.79;74.35
67397;BME280;57728;50.448;18.824;2022-09-30T12:49:48;97479.97;;;11.74;74.34
67397;BME280;57728;50.448;18.824;2022-09-30T12:52:03;97482.53;;;11.66;74.21
67397;BME280;57728;50.448;18.824;2022-09-30T12:54:47;97486.16;;;11.61;74.56
67397;BME280;57728;50.448;18.824;2022-09-30T12:57:04;97486.16;;;11.61;74.45
67397;BME280;57728;50.448;18.824;2022-09-30T12:59:10;97481.94;;;11.55;74.37
67397;BME280;57728;50.448;18.824;2022-09-30T13:01:17;97493.63;;;11.64;74.69
67397;BME280;57728;50.448;18.824;2022-09-30T13:06:02;97496.84;;;11.66;74.28
67397;BME280;57728;50.448;18.824;2022-09-30T13:10:26;97494.03;;;11.71;74.20
67397;BME280;57728;50.448;18.824;2022-09-30T13:12:43;97492.34;;;11.75;74.15
67397;BME280;57728;50.448;18.824;2022-09-30T13:14:46;97490.78;;;11.74;73.99
67397;BME280;57728;50.448;18.824;2022-09-30T13:19:19;97490.97;;;11.78;74.10
67397;BME280;57728;50.448;18.824;2022-09-30T13:21:23;97491.75;;;11.78;74.19
67397;BME280;57728;50.448;18.824;2022-09-30T13:25:55;97496.66;;;11.76;74.49
67397;BME280;57728;50.448;18.824;2022-09-30T13:32:34;97505.06;;;11.75;74.24
67397;BME280;57728;50.448;18.824;2022-09-30T13:34:53;97504.81;;;11.71;74.37
67397;BME280;57728;50.448;18.824;2022-09-30T13:36:59;97504.25;;;11.74;74.30
67397;BME280;57728;50.448;18.824;2022-09-30T13:39:24;97510.75;;;11.73;73.86
67397;BME280;57728;50.448;18.824;2022-09-30T13:41:27;97512.34;;;11.74;74.13
67397;BME280;57728;50.448;18.824;2022-09-30T13:45:53;97488.03;;;11.47;73.91
67397;BME280;57728;50.448;18.824;2022-09-30T13:48:31;97522.81;;;11.62;74.27
67397;BME280;57728;50.448;18.824;2022-09-30T13:50:43;97523.13;;;11.61;74.17
67397;BME280;57728;50.448;18.824;2022-09-30T13:52:55;97521.72;;;11.63;74.21
67397;BME280;57728;50.448;18.824;2022-09-30T13:55:14;97516.84;;;11.65;74.22
67397;BME280;57728;50.448;18.824;2022-09-30T13:57:29;97514.63;;;11.67;74.23
67397;BME280;57728;50.448;18.824;2022-09-30T14:02:46;97510.53;;;11.70;74.47
67397;BME280;57728;50.448;18.824;2022-09-30T14:06:06;97509.97;;;11.73;74.18
67397;BME280;57728;50.448;18.824;2022-09-30T14:08:47;97501.75;;;11.78;73.99
67397;BME280;57728;50.448;18.824;2022-09-30T14:14:05;97497.66;;;11.94;74.03
67397;BME280;57728;50.448;18.824;2022-09-30T14:21:42;97500.66;;;11.93;73.74
67397;BME280;57728;50.448;18.824;2022-09-30T14:24:08;97500.34;;;11.94;74.01
67397;BME280;57728;50.448;18.824;2022-09-30T14:31:23;97490.16;;;11.91;73.72
67397;BME280;57728;50.448;18.824;2022-09-30T14:33:25;97487.25;;;11.88;74.08
67397;BME280;57728;50.448;18.824;2022-09-30T14:35:31;97493.94;;;11.90;73.95
67397;BME280;57728;50.448;18.824;2022-09-30T14:37:47;97487.56;;;11.86;73.53
67397;BME280;57728;50.448;18.824;2022-09-30T14:39:54;97495.25;;;11.79;73.91